createdAt,value
2022-08-19T00:02:07.434Z,8.93
2022-08-19T00:12:11.011Z,9.27
2022-08-19T00:22:18.975Z,8.77
2022-08-19T00:32:28.020Z,10.23
2022-08-19T00:42:34.618Z,9.48
2022-08-19T00:52:40.124Z,9.38
2022-08-19T01:02:47.604Z,9.68
2022-08-19T01:12:57.170Z,9.90
2022-08-19T01:23:03.056Z,9.65
2022-08-19T01:33:07.138Z,9.55
2022-08-19T01:43:12.946Z,9.95
2022-08-19T01:53:18.563Z,9.45
2022-08-19T02:03:25.690Z,10.77
2022-08-19T02:13:28.866Z,11.20
2022-08-19T02:23:33.313Z,11.05
2022-08-19T02:33:35.464Z,11.25
2022-08-19T02:43:47.647Z,11.43
2022-08-19T02:54:11.095Z,11.80
2022-08-19T03:04:16.822Z,11.52
2022-08-19T03:14:20.369Z,11.52
2022-08-19T03:24:25.047Z,11.90
2022-08-19T03:34:29.021Z,11.20
2022-08-19T03:44:34.023Z,12.15
2022-08-19T03:54:39.577Z,11.77
2022-08-19T04:04:44.795Z,10.93
2022-08-19T04:14:51.694Z,11.48
2022-08-19T04:24:53.769Z,12.02
2022-08-19T04:35:02.654Z,12.32
2022-08-19T04:45:24.565Z,12.10
2022-08-19T04:55:28.961Z,11.02
2022-08-19T05:05:44.431Z,9.65
2022-08-19T05:15:58.882Z,9.93
2022-08-19T05:26:04.172Z,9.65
2022-08-19T05:36:08.547Z,9.85
2022-08-19T05:46:28.174Z,10.88
2022-08-19T05:56:33.097Z,10.52
2022-08-19T06:06:36.656Z,9.70
2022-08-19T06:16:42.374Z,9.13
2022-08-19T06:26:50.719Z,10.05
2022-08-19T06:36:58.366Z,8.77
2022-08-19T06:47:00.455Z,8.38
2022-08-19T06:57:08.706Z,9.15
2022-08-19T07:07:19.901Z,9.40
2022-08-19T07:17:22.610Z,8.95
2022-08-19T07:27:35.657Z,9.30
2022-08-19T07:37:46.201Z,8.95
2022-08-19T07:47:51.229Z,8.43
2022-08-19T07:57:57.348Z,8.18
2022-08-19T08:08:19.426Z,8.57
2022-08-19T08:18:30.309Z,8.93
2022-08-19T08:28:35.028Z,8.50
2022-08-19T08:38:43.230Z,8.02
2022-08-19T08:48:54.738Z,8.27
2022-08-19T08:59:08.112Z,9.07
2022-08-19T09:09:23.644Z,9.07
2022-08-19T09:19:36.274Z,7.95
2022-08-19T09:29:38.391Z,7.75
2022-08-19T09:39:43.786Z,7.30
2022-08-19T09:49:50.040Z,6.85
2022-08-19T09:59:57.727Z,7.25
2022-08-19T10:10:03.695Z,7.05
2022-08-19T10:20:08.668Z,6.60
2022-08-19T10:30:14.321Z,7.15
2022-08-19T10:40:23.021Z,7.00
2022-08-19T10:50:47.692Z,6.30
2022-08-19T11:01:05.399Z,7.07
2022-08-19T11:11:10.406Z,7.07
2022-08-19T11:21:22.414Z,6.93
2022-08-19T11:31:30.397Z,5.32
2022-08-19T11:41:40.090Z,7.38
2022-08-19T11:51:58.424Z,6.43
2022-08-19T12:02:04.425Z,6.90
2022-08-19T12:12:08.741Z,5.93
2022-08-19T12:22:14.699Z,6.05
2022-08-19T12:32:26.939Z,6.00
2022-08-19T12:42:31.653Z,6.40
2022-08-19T12:52:38.272Z,5.50
2022-08-19T13:02:43.043Z,6.15
2022-08-19T13:12:49.709Z,6.55
2022-08-19T13:22:54.420Z,5.10
2022-08-19T13:33:17.435Z,5.80
2022-08-19T13:43:26.212Z,6.07
2022-08-19T13:53:33.217Z,6.15
2022-08-19T14:03:40.777Z,5.50
2022-08-19T14:13:42.859Z,5.63
2022-08-19T14:23:46.282Z,5.00
2022-08-19T14:33:50.322Z,5.25
2022-08-19T14:43:54.549Z,4.88
2022-08-19T14:53:57.646Z,5.05
2022-08-19T15:04:05.228Z,4.68
2022-08-19T15:14:11.652Z,4.43
2022-08-19T15:24:16.430Z,4.88
2022-08-19T15:34:25.970Z,4.60
2022-08-19T15:44:30.626Z,5.15
2022-08-19T15:54:33.497Z,4.53
2022-08-19T16:04:57.149Z,4.93
2022-08-19T16:15:00.846Z,4.85
2022-08-19T16:25:06.596Z,4.72
2022-08-19T16:35:08.973Z,4.88
2022-08-19T16:45:13.370Z,4.38
2022-08-19T16:55:15.736Z,4.78
2022-08-19T17:05:20.439Z,4.03
2022-08-19T17:15:23.556Z,4.30
2022-08-19T17:25:31.853Z,4.85
2022-08-19T17:35:36.195Z,4.63
2022-08-19T17:45:46.801Z,4.93
2022-08-19T17:55:58.546Z,4.82
2022-08-19T18:06:06.441Z,4.53
2022-08-19T18:16:12.513Z,5.10
2022-08-19T18:26:15.301Z,5.05
2022-08-19T18:36:32.080Z,5.07
2022-08-19T18:46:59.131Z,5.32
2022-08-19T18:57:05.792Z,9.80
2022-08-19T19:07:18.591Z,5.60
2022-08-19T19:17:27.531Z,5.53
2022-08-19T19:27:33.673Z,6.25
2022-08-19T19:37:38.654Z,5.47
2022-08-19T19:47:48.004Z,4.68
2022-08-19T19:57:55.245Z,4.72
2022-08-19T20:08:16.071Z,4.78
2022-08-19T20:18:21.653Z,5.10
2022-08-19T20:28:28.328Z,4.63
2022-08-19T20:38:35.256Z,4.57
2022-08-19T20:48:39.922Z,4.57
2022-08-19T20:58:50.074Z,4.70
2022-08-19T21:08:59.238Z,4.72
2022-08-19T21:19:02.807Z,4.53
2022-08-19T21:29:07.772Z,5.88
2022-08-19T21:39:10.138Z,5.10
2022-08-19T21:49:14.940Z,4.78
2022-08-19T21:59:22.376Z,4.93
2022-08-19T22:09:27.823Z,4.90
2022-08-19T22:19:30.950Z,5.18
2022-08-19T22:29:37.523Z,4.63
2022-08-19T22:39:40.957Z,4.55
2022-08-19T22:49:44.010Z,4.97
2022-08-19T22:59:51.377Z,4.60
2022-08-19T23:09:53.489Z,4.55
2022-08-19T23:20:00.204Z,4.72
2022-08-19T23:30:24.447Z,4.28
2022-08-19T23:40:27.194Z,4.65
2022-08-19T23:50:34.605Z,5.15
